Time;durP1;ratioP1;P1;durP2;ratioP2;P2;SDS_P1;SDS_P2;PMS_P1;PMS_P2;Temp;Humidity;BMP_temperature;BMP_pressure;BME280_temperature;BME280_humidity;BME280_pressure;Samples;Min_cycle;Max_cycle;Signal;HPM_P1;HPM_P2
2021/06/09 00:02:21;;;;;;;8.20;6.28;;;;;;;20.73;35.76;101785.66;3609597;39;20075;-71
2021/06/09 00:04:49;;;;;;;8.13;6.72;;;;;;;20.67;35.83;101783.56;3608672;39;20043;-71
2021/06/09 00:07:16;;;;;;;7.95;6.65;;;;;;;20.66;36.16;101782.72;3609641;39;20047;-71
2021/06/09 00:09:44;;;;;;;8.32;6.47;;;;;;;20.63;36.03;101783.06;3609719;39;20054;-71
2021/06/09 00:12:12;;;;;;;8.32;7.22;;;;;;;20.62;35.89;101777.69;3610400;39;20049;-71
2021/06/09 00:14:40;;;;;;;7.53;6.68;;;;;;;20.59;36.07;101780.78;3610300;39;20306;-71
2021/06/09 00:17:08;;;;;;;8.60;7.05;;;;;;;20.57;36.09;101778.22;3610821;39;20048;-71
2021/06/09 00:19:37;;;;;;;8.40;7.25;;;;;;;20.57;35.96;101781.00;3609067;39;20072;-71
2021/06/09 00:22:05;;;;;;;8.73;7.32;;;;;;;20.53;36.28;101779.59;3609978;39;20087;-71
2021/06/09 00:24:33;;;;;;;8.77;7.10;;;;;;;20.52;36.06;101771.44;3611805;39;20124;-71
2021/06/09 00:27:01;;;;;;;7.97;6.57;;;;;;;20.49;36.60;101767.13;3611340;39;20047;-71
2021/06/09 00:29:29;;;;;;;9.10;7.03;;;;;;;20.48;36.70;101770.06;3610253;39;20055;-71
2021/06/09 00:31:56;;;;;;;8.43;7.00;;;;;;;20.45;36.21;101776.81;3609918;39;20063;-71
2021/06/09 00:34:24;;;;;;;8.30;6.75;;;;;;;20.43;36.13;101762.22;3607843;39;20081;-71
2021/06/09 00:36:53;;;;;;;9.23;7.20;;;;;;;20.43;36.21;101773.34;3611111;39;20429;-71
2021/06/09 00:39:21;;;;;;;8.43;7.38;;;;;;;20.39;36.27;101773.88;3611819;39;20430;-71
2021/06/09 00:41:48;;;;;;;8.75;6.88;;;;;;;20.37;36.68;101770.41;3610880;39;20043;-71
2021/06/09 00:44:16;;;;;;;8.57;7.43;;;;;;;20.36;36.71;101774.22;3611113;39;20119;-71
2021/06/09 00:46:44;;;;;;;7.70;6.90;;;;;;;20.33;36.47;101764.34;3605945;39;20048;-71
2021/06/09 00:49:12;;;;;;;8.52;6.88;;;;;;;20.33;36.84;101771.81;3611104;39;20395;-71
2021/06/09 00:51:39;;;;;;;8.65;7.13;;;;;;;20.29;36.89;101769.38;3610304;39;20031;-71
2021/06/09 00:54:09;;;;;;;8.52;7.10;;;;;;;20.29;36.75;101766.59;3608284;39;20118;-71
2021/06/09 00:56:38;;;;;;;9.73;7.30;;;;;;;20.27;36.87;101768.66;3610479;39;20059;-71
2021/06/09 00:59:06;;;;;;;7.93;6.85;;;;;;;20.23;36.75;101764.53;3605435;39;20132;-71
2021/06/09 01:01:35;;;;;;;9.48;7.25;;;;;;;20.21;36.53;101755.50;3610160;39;20056;-71
2021/06/09 01:04:04;;;;;;;9.00;7.32;;;;;;;20.22;37.03;101757.22;3606837;39;20081;-71
2021/06/09 01:06:32;;;;;;;8.10;7.03;;;;;;;20.18;36.66;101757.69;3606022;39;20047;-70
2021/06/09 01:09:00;;;;;;;8.95;7.50;;;;;;;20.16;36.95;101759.81;3603303;39;20051;-71
2021/06/09 01:11:29;;;;;;;9.95;7.07;;;;;;;20.17;37.04;101751.28;3608184;39;20067;-71
2021/06/09 01:13:57;;;;;;;8.48;7.03;;;;;;;20.12;36.64;101750.94;3606717;39;20044;-71
2021/06/09 01:16:25;;;;;;;9.50;7.93;;;;;;;20.09;37.12;101754.06;3608739;39;20060;-71
2021/06/09 01:18:54;;;;;;;9.02;7.35;;;;;;;20.07;36.84;101750.59;3609473;39;20567;-71
2021/06/09 01:21:26;;;;;;;9.45;7.65;;;;;;;20.07;37.14;101756.16;3605976;39;20059;-71
2021/06/09 01:23:54;;;;;;;8.85;7.30;;;;;;;20.00;37.27;101757.91;3605916;39;20360;-71
2021/06/09 01:26:24;;;;;;;9.60;8.25;;;;;;;20.00;37.70;101763.44;3611702;39;20355;-71
2021/06/09 01:28:53;;;;;;;10.10;8.27;;;;;;;19.98;37.28;101764.66;3606544;39;20131;-71
2021/06/09 01:31:22;;;;;;;10.45;9.23;;;;;;;19.94;37.53;101761.34;3608966;39;20064;-71
2021/06/09 01:33:50;;;;;;;12.30;10.13;;;;;;;19.86;37.52;101755.78;3610179;39;20103;-71
2021/06/09 01:36:20;;;;;;;12.38;9.60;;;;;;;19.81;37.67;101758.22;3608680;39;20060;-71
2021/06/09 01:38:50;;;;;;;11.30;9.25;;;;;;;19.78;37.97;101762.19;3610189;39;20043;-71
2021/06/09 01:41:21;;;;;;;11.93;9.55;;;;;;;19.75;37.84;101759.78;3599324;39;20060;-71
2021/06/09 01:43:52;;;;;;;12.27;9.18;;;;;;;19.71;37.88;101760.28;3609117;39;20040;-71
2021/06/09 01:46:20;;;;;;;11.60;8.95;;;;;;;19.69;37.56;101760.44;3608510;39;20040;-71
2021/06/09 01:48:49;;;;;;;11.77;8.95;;;;;;;19.67;38.32;101761.66;3610533;39;20072;-71
2021/06/09 01:51:17;;;;;;;10.50;8.20;;;;;;;19.66;38.05;101752.47;3610642;39;20051;-71
2021/06/09 01:53:46;;;;;;;12.25;9.20;;;;;;;19.66;37.96;101754.38;3609974;39;20494;-71
2021/06/09 01:56:16;;;;;;;11.15;8.80;;;;;;;19.66;38.59;101755.25;3609137;39;20055;-71
2021/06/09 01:58:45;;;;;;;10.68;8.60;;;;;;;19.63;38.19;101752.78;3606625;39;20124;-71
2021/06/09 02:01:13;;;;;;;10.98;8.20;;;;;;;19.62;38.07;101751.06;3608236;39;20410;-71
2021/06/09 02:03:42;;;;;;;10.23;7.97;;;;;;;19.63;38.16;101755.56;3609284;39;20044;-71
2021/06/09 02:06:10;;;;;;;11.07;8.80;;;;;;;19.59;38.27;101756.97;3609980;39;20056;-71
2021/06/09 02:08:37;;;;;;;10.25;8.73;;;;;;;19.58;38.08;101763.56;3610667;39;20128;-71
2021/06/09 02:11:05;;;;;;;10.38;8.30;;;;;;;19.55;38.21;101758.31;3610835;39;20163;-71
2021/06/09 02:13:35;;;;;;;10.90;8.70;;;;;;;19.55;38.11;101761.09;3609873;39;20303;-71
2021/06/09 02:16:03;;;;;;;10.48;8.57;;;;;;;19.51;38.08;101751.41;3610045;39;20059;-71
2021/06/09 02:18:31;;;;;;;10.40;8.50;;;;;;;19.50;37.85;101757.94;3607333;39;20048;-71
2021/06/09 02:21:03;;;;;;;11.68;9.68;;;;;;;19.49;38.70;101750.66;3608909;39;20139;-71
2021/06/09 02:23:34;;;;;;;10.27;9.20;;;;;;;19.49;38.82;101758.97;3608831;39;20051;-71
2021/06/09 02:26:02;;;;;;;10.93;8.50;;;;;;;19.44;38.48;101756.69;3610885;39;20079;-71
2021/06/09 02:28:32;;;;;;;10.90;8.65;;;;;;;19.44;38.57;101755.81;3597038;39;20055;-71
2021/06/09 02:31:02;;;;;;;10.88;8.30;;;;;;;19.42;38.53;101755.16;3609169;39;20051;-71
2021/06/09 02:33:29;;;;;;;10.98;9.05;;;;;;;19.39;38.55;101759.13;3608012;39;20055;-71
2021/06/09 02:35:58;;;;;;;10.50;8.68;;;;;;;19.38;38.45;101753.72;3608692;39;20058;-71
2021/06/09 02:38:26;;;;;;;10.60;8.93;;;;;;;19.34;38.57;101753.22;3610158;39;20074;-71
2021/06/09 02:40:57;;;;;;;9.98;8.15;;;;;;;19.34;38.68;101756.00;3609663;39;20056;-71
2021/06/09 02:43:31;;;;;;;10.05;8.15;;;;;;;19.30;38.38;101759.25;3607421;39;20044;-71
2021/06/09 02:46:05;;;;;;;10.25;7.97;;;;;;;19.30;38.67;101753.72;3610630;39;20050;-71
2021/06/09 02:48:35;;;;;;;12.65;8.75;;;;;;;19.26;38.54;101753.19;3608973;39;20560;-71
2021/06/09 02:51:03;;;;;;;11.13;8.73;;;;;;;19.25;39.10;101753.34;3610135;39;20080;-71
2021/06/09 02:53:35;;;;;;;11.02;8.30;;;;;;;19.25;38.62;101765.31;3610215;39;20066;-72
2021/06/09 02:56:16;;;;;;;9.90;8.38;;;;;;;19.24;39.02;101760.81;3609666;39;20132;-71
2021/06/09 02:58:52;;;;;;;8.75;7.75;;;;;;;19.20;39.06;101756.63;3610365;39;20091;-71
2021/06/09 03:01:29;;;;;;;10.40;8.20;;;;;;;19.21;39.27;101752.81;3609726;39;20039;-72
2021/06/09 03:04:05;;;;;;;10.85;8.27;;;;;;;19.20;39.05;101762.16;3609043;39;20112;-71
2021/06/09 03:06:41;;;;;;;9.70;8.63;;;;;;;19.18;39.24;101756.78;3614230;39;20058;-71
2021/06/09 03:09:15;;;;;;;11.25;8.88;;;;;;;19.16;39.37;101758.88;3609203;39;20070;-71
2021/06/09 03:11:52;;;;;;;11.85;8.85;;;;;;;19.16;39.46;101758.00;3608301;39;20177;-71
2021/06/09 03:17:15;;;;;;;11.10;9.13;;;;;;;19.11;38.99;101754.84;3608722;39;20054;-71
2021/06/09 03:19:53;;;;;;;11.48;8.43;;;;;;;19.08;39.82;101750.50;3609067;39;20067;-71
2021/06/09 03:22:30;;;;;;;11.27;8.18;;;;;;;19.07;39.10;101753.44;3608963;39;20267;-72
2021/06/09 03:24:59;;;;;;;10.75;8.35;;;;;;;19.00;38.85;101753.25;3610308;39;20080;-71
2021/06/09 03:27:32;;;;;;;11.02;8.40;;;;;;;19.01;39.57;101754.13;3609381;39;20064;-72
2021/06/09 03:30:05;;;;;;;9.95;8.43;;;;;;;18.99;39.65;101751.50;3607109;39;20055;-72
2021/06/09 03:32:37;;;;;;;11.43;8.55;;;;;;;18.95;39.05;101755.63;3608463;39;20051;-72
2021/06/09 03:35:10;;;;;;;13.02;10.10;;;;;;;18.94;39.45;101751.13;3609162;39;20047;-72
2021/06/09 03:37:41;;;;;;;11.90;9.13;;;;;;;18.92;39.24;101752.34;3608150;39;20129;-77
2021/06/09 03:40:15;;;;;;;10.60;8.63;;;;;;;18.91;39.56;101756.16;3610483;39;20059;-71
2021/06/09 03:42:47;;;;;;;13.68;10.00;;;;;;;18.89;40.02;101745.22;3607042;39;20059;-71
2021/06/09 03:45:16;;;;;;;11.63;9.82;;;;;;;18.85;39.93;101752.13;3607319;39;20051;-71
2021/06/09 03:47:46;;;;;;;11.18;9.30;;;;;;;18.86;39.85;101755.75;3609632;39;20079;-71
2021/06/09 03:50:17;;;;;;;12.00;9.27;;;;;;;18.83;39.89;101751.44;3605811;39;20036;-71
2021/06/09 03:52:47;;;;;;;11.52;9.30;;;;;;;18.79;39.92;101750.88;3611924;39;20043;-72
2021/06/09 03:55:17;;;;;;;11.82;9.70;;;;;;;18.78;39.87;101757.44;3611047;39;20477;-74
2021/06/09 03:57:46;;;;;;;10.43;8.57;;;;;;;18.76;39.93;101756.75;3605408;39;20410;-73
2021/06/09 04:00:15;;;;;;;11.35;8.90;;;;;;;18.74;39.93;101752.38;3612596;39;20720;-77
2021/06/09 04:02:46;;;;;;;9.82;8.57;;;;;;;18.74;39.54;101749.59;3602236;39;20044;-73
2021/06/09 04:05:14;;;;;;;11.10;9.43;;;;;;;18.73;40.24;101756.19;3602838;39;20024;-73
2021/06/09 04:07:45;;;;;;;11.07;9.93;;;;;;;18.75;39.97;101759.66;3603179;39;20070;-74
2021/06/09 04:10:15;;;;;;;11.70;9.13;;;;;;;18.73;40.16;101753.41;3611360;39;20081;-73
2021/06/09 04:12:45;;;;;;;11.48;9.57;;;;;;;18.70;39.58;101746.28;3612038;39;20036;-74
2021/06/09 04:15:13;;;;;;;11.13;8.90;;;;;;;18.72;40.05;101755.31;3612100;39;20036;-73
2021/06/09 04:17:45;;;;;;;12.48;9.70;;;;;;;18.74;40.22;101752.38;3602699;39;20453;-74
2021/06/09 04:20:22;;;;;;;14.25;9.65;;;;;;;18.73;40.19;101754.28;3611976;39;20055;-74
2021/06/09 04:22:52;;;;;;;11.02;9.15;;;;;;;18.71;39.69;101752.69;3610855;39;20321;-73
2021/06/09 04:25:40;;;;;;;12.55;9.65;;;;;;;18.71;40.25;101756.34;3602161;39;20048;-74
2021/06/09 04:28:28;;;;;;;10.80;8.55;;;;;;;18.73;40.22;101750.63;3611161;39;20027;-75
2021/06/09 04:30:57;;;;;;;10.98;9.05;;;;;;;18.75;40.15;101754.13;3602265;39;20029;-72
2021/06/09 04:33:46;;;;;;;12.38;9.77;;;;;;;18.74;40.49;101758.78;3606551;39;20302;-66
2021/06/09 04:36:25;;;;;;;12.80;9.75;;;;;;;18.76;40.45;101756.75;3605371;39;20096;-66
2021/06/09 04:38:53;;;;;;;11.50;9.35;;;;;;;18.76;39.97;101755.88;3609146;39;20063;-66
2021/06/09 04:41:26;;;;;;;12.07;9.32;;;;;;;18.78;39.98;101754.69;3609020;39;20083;-66
2021/06/09 04:44:14;;;;;;;13.30;10.15;;;;;;;18.77;40.23;101769.53;3600325;39;20040;-66
2021/06/09 04:47:02;;;;;;;11.80;9.48;;;;;;;18.78;40.72;101759.31;3609473;39;20058;-66
2021/06/09 04:49:50;;;;;;;12.48;9.30;;;;;;;18.79;40.90;101761.09;3609396;39;20067;-66
2021/06/09 04:52:39;;;;;;;11.30;9.73;;;;;;;18.83;40.36;101769.97;3603164;39;20136;-66
2021/06/09 04:55:26;;;;;;;11.48;9.35;;;;;;;18.81;40.45;101765.44;3607335;39;20221;-67
2021/06/09 04:58:16;;;;;;;11.65;9.75;;;;;;;18.82;40.45;101763.53;3609678;39;20043;-67
2021/06/09 05:01:03;;;;;;;11.57;10.02;;;;;;;18.83;40.98;101758.88;3608452;39;20121;-66
2021/06/09 05:03:50;;;;;;;11.52;8.65;;;;;;;18.85;41.08;101756.81;3607877;39;20047;-72
2021/06/09 05:06:38;;;;;;;13.05;10.43;;;;;;;18.87;40.97;101757.50;3589705;40;20291;-72
2021/06/09 05:09:28;;;;;;;13.13;9.85;;;;;;;18.90;40.88;101760.81;3604912;39;20023;-74
2021/06/09 05:12:20;;;;;;;11.20;9.10;;;;;;;18.93;41.01;101752.19;3611793;39;20125;-73
2021/06/09 05:15:11;;;;;;;11.70;10.00;;;;;;;19.00;41.40;101755.16;3612007;39;20031;-74
2021/06/09 05:18:01;;;;;;;13.38;10.65;;;;;;;19.05;41.92;101759.16;3611337;39;20088;-73
2021/06/09 05:20:51;;;;;;;13.65;10.63;;;;;;;19.11;42.03;101761.25;3610470;39;20395;-73
2021/06/09 05:23:42;;;;;;;13.10;10.23;;;;;;;19.19;41.96;101761.28;3586843;40;20072;-74
2021/06/09 05:26:32;;;;;;;13.00;10.77;;;;;;;19.28;42.04;101759.41;3609667;39;20427;-75
2021/06/09 05:29:19;;;;;;;14.20;11.43;;;;;;;19.35;41.95;101762.41;3609694;39;20032;-74
2021/06/09 05:32:09;;;;;;;13.23;10.88;;;;;;;19.46;42.25;101757.41;3611072;39;20421;-73
2021/06/09 05:34:58;;;;;;;14.35;11.40;;;;;;;19.55;41.96;101761.09;3600174;39;20039;-73
2021/06/09 05:37:46;;;;;;;15.10;11.07;;;;;;;19.63;41.89;101755.56;3606615;39;20047;-73
2021/06/09 05:40:35;;;;;;;12.90;10.75;;;;;;;19.75;41.62;101758.91;3610421;39;20043;-72
2021/06/09 05:43:03;;;;;;;15.10;11.90;;;;;;;19.86;41.60;101761.31;3611765;39;20030;-75
2021/06/09 05:45:33;;;;;;;13.45;11.52;;;;;;;19.93;42.02;101766.03;3611893;39;20035;-72
2021/06/09 05:48:20;;;;;;;14.43;11.82;;;;;;;20.02;41.53;101766.03;3600369;40;20068;-73
2021/06/09 05:51:04;;;;;;;13.43;11.65;;;;;;;20.11;42.01;101771.41;3600097;40;20046;-71
2021/06/09 05:53:34;;;;;;;15.88;11.65;;;;;;;20.21;41.56;101765.72;3600946;40;20028;-72
2021/06/09 05:56:02;;;;;;;13.80;11.27;;;;;;;20.29;41.47;101772.16;3600667;40;20059;-72
2021/06/09 05:58:32;;;;;;;13.90;11.32;;;;;;;20.40;41.75;101772.84;3601269;40;20321;-72
2021/06/09 06:01:12;;;;;;;13.73;10.77;;;;;;;20.47;41.35;101771.97;3600181;40;20028;-73
2021/06/09 06:03:44;;;;;;;14.05;10.75;;;;;;;20.54;41.46;101766.56;3588755;40;20088;-72
2021/06/09 06:06:14;;;;;;;13.45;11.43;;;;;;;20.64;41.47;101761.69;3599897;39;20052;-72
2021/06/09 06:08:43;;;;;;;14.15;11.90;;;;;;;20.73;40.80;101771.75;3600728;39;20047;-72
2021/06/09 06:11:16;;;;;;;14.15;11.63;;;;;;;20.78;41.19;101766.53;3600824;39;20048;-70
2021/06/09 06:13:47;;;;;;;13.43;10.77;;;;;;;20.88;40.89;101766.31;3609017;39;20121;-70
2021/06/09 06:16:34;;;;;;;14.35;11.25;;;;;;;20.93;40.82;101773.13;3609833;39;20044;-71
2021/06/09 06:19:19;;;;;;;13.70;11.57;;;;;;;21.02;41.05;101769.25;3610241;39;20104;-71
2021/06/09 06:21:48;;;;;;;14.07;12.20;;;;;;;21.12;40.91;101768.19;3605641;39;20066;-70
2021/06/09 06:24:19;;;;;;;18.33;12.43;;;;;;;21.17;41.06;101769.38;3608680;39;20040;-70
2021/06/09 06:27:08;;;;;;;14.63;12.13;;;;;;;21.25;40.58;101766.56;3609785;39;20047;-70
2021/06/09 06:29:57;;;;;;;13.73;11.43;;;;;;;21.34;40.69;101771.03;3609842;39;20124;-71
2021/06/09 06:32:46;;;;;;;13.63;11.70;;;;;;;21.42;40.77;101768.22;3609912;39;20125;-70
2021/06/09 06:35:34;;;;;;;14.52;11.18;;;;;;;21.48;40.50;101769.41;3609065;39;20434;-70
2021/06/09 06:38:22;;;;;;;14.70;12.10;;;;;;;21.57;40.21;101771.16;3609807;39;20067;-69
2021/06/09 06:41:11;;;;;;;14.82;12.45;;;;;;;21.65;40.29;101779.44;3606133;39;20039;-69
2021/06/09 06:43:59;;;;;;;14.95;11.90;;;;;;;21.72;40.11;101776.78;3600114;39;20578;-69
2021/06/09 06:46:50;;;;;;;14.73;12.13;;;;;;;21.83;39.95;101773.56;3609679;39;20039;-69
2021/06/09 06:49:38;;;;;;;15.98;12.05;;;;;;;21.89;39.84;101774.78;3609006;39;20036;-68
2021/06/09 06:52:29;;;;;;;14.85;12.80;;;;;;;22.00;39.67;101783.53;3605187;39;20042;-73
2021/06/09 06:55:19;;;;;;;18.00;13.85;;;;;;;22.08;40.07;101780.69;3598590;40;20032;-74
2021/06/09 06:58:07;;;;;;;15.65;12.32;;;;;;;22.16;39.67;101780.63;3605830;39;20117;-74
2021/06/09 07:00:55;;;;;;;15.63;12.15;;;;;;;22.24;39.51;101773.28;3610034;39;20054;-75
2021/06/09 07:03:44;;;;;;;15.40;12.02;;;;;;;22.36;39.55;101771.81;3588835;39;20031;-68
2021/06/09 07:06:33;;;;;;;14.82;12.55;;;;;;;22.45;39.46;101765.97;3603936;39;20059;-67
2021/06/09 07:09:37;;;;;;;13.25;11.00;;;;;;;22.55;39.23;101776.84;3606630;39;20055;-68
2021/06/09 07:12:24;;;;;;;15.57;12.75;;;;;;;22.65;39.47;101777.44;3609782;39;20039;-68
2021/06/09 07:15:04;;;;;;;15.13;12.32;;;;;;;22.76;39.33;101776.09;3608162;39;20116;-68
2021/06/09 07:17:33;;;;;;;15.73;11.82;;;;;;;22.86;38.92;101772.03;3607538;39;20051;-68
2021/06/09 07:20:10;;;;;;;13.55;11.52;;;;;;;22.98;38.54;101782.69;3603612;39;20058;-68
2021/06/09 07:22:40;;;;;;;12.38;10.55;;;;;;;23.03;38.86;101778.28;3606085;39;20066;-68
2021/06/09 07:25:09;;;;;;;14.65;11.38;;;;;;;23.15;38.38;101781.44;3609320;39;20650;-68
2021/06/09 07:27:40;;;;;;;14.50;11.60;;;;;;;23.25;38.36;101782.00;3608639;39;20136;-70
2021/06/09 07:30:09;;;;;;;13.95;11.18;;;;;;;23.33;38.33;101779.97;3607217;39;20059;-68
2021/06/09 07:32:41;;;;;;;13.93;12.07;;;;;;;23.43;38.20;101778.81;3606891;39;20369;-68
2021/06/09 07:35:11;;;;;;;13.80;11.77;;;;;;;23.50;37.91;101777.00;3606844;39;20059;-68
2021/06/09 07:37:42;;;;;;;13.02;10.45;;;;;;;23.61;37.38;101774.59;3608693;39;20114;-68
2021/06/09 07:40:12;;;;;;;11.50;10.20;;;;;;;23.71;37.54;101774.28;3606325;39;20055;-68
2021/06/09 07:42:45;;;;;;;12.90;9.90;;;;;;;23.78;37.54;101772.41;3607162;39;20316;-68
2021/06/09 07:45:14;;;;;;;;;;;;;;;23.52;38.18;101775.75;3601004;39;20047;-68
2021/06/09 07:47:44;;;;;;;12.90;10.13;;;;;;;23.89;37.47;101776.59;3608705;39;19964;-68
2021/06/09 07:50:14;;;;;;;10.50;9.30;;;;;;;24.01;37.33;101773.09;3597191;39;20055;-68
2021/06/09 07:52:43;;;;;;;12.00;9.70;;;;;;;24.08;37.32;101781.56;3609181;39;20052;-68
2021/06/09 07:55:12;;;;;;;13.65;12.10;;;;;;;24.14;36.86;101775.19;3608359;39;20055;-67
2021/06/09 07:57:42;;;;;;;11.95;9.55;;;;;;;24.23;36.56;101779.56;3608784;39;20118;-68
2021/06/09 08:00:12;;;;;;;11.77;10.25;;;;;;;24.30;36.82;101785.22;3608460;39;20432;-68
2021/06/09 08:02:42;;;;;;;10.95;9.50;;;;;;;24.35;36.82;101783.56;3608893;39;20141;-68
2021/06/09 08:05:11;;;;;;;11.35;10.10;;;;;;;24.42;36.19;101783.63;3605762;39;20051;-69
2021/06/09 08:07:41;;;;;;;12.30;9.98;;;;;;;24.49;36.31;101778.94;3606479;39;20059;-69
2021/06/09 08:10:11;;;;;;;11.88;9.85;;;;;;;24.55;36.24;101777.25;3612281;39;20055;-69
2021/06/09 08:12:40;;;;;;;10.35;8.45;;;;;;;24.61;36.04;101777.34;3608834;39;20046;-68
2021/06/09 08:15:09;;;;;;;12.43;9.63;;;;;;;24.68;36.13;101775.50;3607699;39;20067;-69
2021/06/09 08:17:39;;;;;;;13.75;10.15;;;;;;;24.72;35.98;101765.59;3609893;39;20115;-69
2021/06/09 08:20:11;;;;;;;14.52;11.05;;;;;;;24.80;35.62;101770.19;3607236;39;20056;-69
2021/06/09 08:22:39;;;;;;;11.27;10.07;;;;;;;24.88;35.65;101770.00;3608892;39;20047;-68
2021/06/09 08:25:08;;;;;;;11.07;8.93;;;;;;;24.96;35.58;101769.84;3606943;39;20095;-68
2021/06/09 08:27:37;;;;;;;11.60;9.07;;;;;;;25.01;35.68;101772.91;3607188;39;20059;-69
2021/06/09 08:30:07;;;;;;;8.90;7.97;;;;;;;25.08;35.73;101768.22;3608997;39;20054;-69
2021/06/09 08:32:35;;;;;;;12.05;10.32;;;;;;;25.15;35.45;101762.66;3608336;39;20052;-69
2021/06/09 08:35:05;;;;;;;11.18;9.13;;;;;;;25.25;35.24;101767.91;3599558;39;20051;-69
2021/06/09 08:37:32;;;;;;;11.10;9.25;;;;;;;25.30;35.21;101763.41;3608447;39;20088;-69
2021/06/09 08:40:00;;;;;;;12.02;10.57;;;;;;;25.37;35.37;101761.50;3610074;39;20074;-69
2021/06/09 08:42:34;;;;;;;10.63;9.23;;;;;;;25.48;34.38;101771.25;3610003;39;20060;-68
2021/06/09 08:45:05;;;;;;;10.98;9.30;;;;;;;25.51;34.88;101770.84;3610802;39;20036;-69
2021/06/09 08:47:34;;;;;;;13.10;9.40;;;;;;;25.58;34.50;101770.84;3610475;39;20087;-69
2021/06/09 08:50:03;;;;;;;9.68;8.15;;;;;;;25.64;34.57;101770.88;3608595;39;20048;-68
2021/06/09 08:52:32;;;;;;;11.13;9.27;;;;;;;25.70;34.55;101770.03;3610507;39;20045;-68
2021/06/09 08:55:00;;;;;;;10.02;8.57;;;;;;;25.75;34.56;101769.41;3610405;39;20523;-69
2021/06/09 08:57:29;;;;;;;10.27;8.55;;;;;;;25.83;34.48;101772.06;3609965;39;20132;-69
2021/06/09 08:59:57;;;;;;;10.77;8.20;;;;;;;25.85;34.28;101767.97;3610040;39;20097;-69
2021/06/09 09:02:25;;;;;;;10.07;7.97;;;;;;;25.90;33.99;101762.56;3609594;39;20043;-68
2021/06/09 09:04:54;;;;;;;7.78;6.97;;;;;;;25.95;33.76;101761.94;3609737;39;20047;-68
2021/06/09 09:07:24;;;;;;;8.23;7.07;;;;;;;25.97;33.46;101765.38;3608931;39;20051;-68
2021/06/09 09:09:52;;;;;;;8.15;7.32;;;;;;;25.98;33.24;101772.72;3609625;39;20062;-68
2021/06/09 09:12:20;;;;;;;9.77;8.43;;;;;;;26.00;33.11;101764.09;3609319;39;20074;-69
2021/06/09 09:14:49;;;;;;;8.93;7.45;;;;;;;26.03;32.85;101763.66;3609307;39;20051;-68
2021/06/09 09:17:17;;;;;;;8.35;7.05;;;;;;;26.01;32.69;101763.91;3608879;39;20055;-69
2021/06/09 09:19:46;;;;;;;8.13;7.32;;;;;;;26.03;32.51;101772.06;3606296;39;20094;-69
2021/06/09 09:22:21;;;;;;;8.05;7.25;;;;;;;26.03;32.13;101767.34;3608910;39;20122;-68
2021/06/09 09:24:50;;;;;;;7.80;6.93;;;;;;;25.99;32.41;101770.78;3608737;39;20088;-68
2021/06/09 09:27:27;;;;;;;8.50;7.38;;;;;;;25.98;32.46;101761.50;3607953;39;20376;-68
2021/06/09 09:30:07;;;;;;;9.13;7.85;;;;;;;26.01;32.18;101769.50;3609361;39;20318;-69
2021/06/09 09:32:36;;;;;;;9.38;8.32;;;;;;;25.99;32.75;101768.84;3610098;39;20055;-68
2021/06/09 09:35:07;;;;;;;10.23;8.35;;;;;;;26.03;32.02;101769.28;3609849;39;20048;-69
2021/06/09 09:37:36;;;;;;;12.05;10.10;;;;;;;25.99;32.13;101768.84;3609696;39;20083;-68
2021/06/09 09:40:14;;;;;;;10.13;8.98;;;;;;;26.06;31.71;101771.66;3610041;39;20355;-68
2021/06/09 09:42:42;;;;;;;8.85;7.68;;;;;;;26.02;32.11;101776.81;3601023;39;20059;-69
2021/06/09 09:45:23;;;;;;;9.70;7.90;;;;;;;26.04;31.51;101782.22;3608744;39;20310;-69
2021/06/09 09:48:10;;;;;;;8.90;7.53;;;;;;;26.00;31.34;101772.53;3609230;39;20043;-68
2021/06/09 09:50:39;;;;;;;8.13;7.05;;;;;;;25.98;31.62;101775.53;3608395;39;20047;-69
2021/06/09 09:56:07;;;;;;;8.25;7.45;;;;;;;25.95;31.12;101767.53;3622010;39;20292;-78
2021/06/09 09:58:37;;;;;;;8.65;7.75;;;;;;;25.96;31.11;101772.06;3624625;39;20059;-76
2021/06/09 10:01:14;;;;;;;13.13;8.32;;;;;;;26.00;31.08;101778.13;3582584;40;20479;-77
2021/06/09 10:03:44;;;;;;;8.18;7.13;;;;;;;25.98;31.78;101783.94;3572102;40;20038;-77
2021/06/09 10:06:16;;;;;;;8.50;7.60;;;;;;;26.02;31.57;101778.78;3611438;39;20399;-77
2021/06/09 10:08:44;;;;;;;7.90;7.10;;;;;;;25.98;31.57;101774.66;3605530;39;20131;-77
2021/06/09 10:11:13;;;;;;;7.75;6.93;;;;;;;26.02;31.24;101773.19;3614572;39;20066;-77
2021/06/09 10:13:41;;;;;;;8.95;7.32;;;;;;;26.02;31.31;101776.81;3605753;39;20036;-77
2021/06/09 10:16:30;;;;;;;8.65;7.38;;;;;;;26.04;30.92;101782.22;3605869;39;20034;-77
2021/06/09 10:19:07;;;;;;;7.68;6.90;;;;;;;26.04;30.39;101773.81;3615627;39;20039;-79
2021/06/09 10:21:42;;;;;;;7.28;6.22;;;;;;;26.03;31.05;101772.94;3614598;39;20129;-76
2021/06/09 10:24:10;;;;;;;7.38;6.55;;;;;;;26.05;31.38;101778.34;3617352;39;20340;-79
2021/06/09 10:26:41;;;;;;;7.65;6.72;;;;;;;26.07;31.41;101771.47;3612311;39;20035;-79
2021/06/09 10:29:16;;;;;;;8.73;7.25;;;;;;;26.13;31.14;101776.19;3597983;40;20040;-80
2021/06/09 10:31:48;;;;;;;8.35;7.13;;;;;;;26.17;30.57;101771.03;3587490;40;20033;-80
2021/06/09 10:34:52;;;;;;;8.10;7.13;;;;;;;26.19;30.66;101777.28;3596383;40;20092;-78
2021/06/09 10:37:47;;;;;;;10.50;7.97;;;;;;;26.22;30.87;101774.06;3563115;40;20026;-78
2021/06/09 10:45:01;;;;;;;7.50;6.72;;;;;;;26.28;31.10;101771.25;3587803;40;20045;-80
2021/06/09 10:47:33;;;;;;;8.82;7.93;;;;;;;26.40;30.64;101762.25;3568743;40;20049;-79
2021/06/09 10:50:05;;;;;;;9.43;8.43;;;;;;;26.47;30.57;101768.72;3566884;40;20100;-80
2021/06/09 10:52:34;;;;;;;9.05;8.15;;;;;;;26.51;30.94;101770.03;3567396;40;20112;-78
2021/06/09 11:00:37;;;;;;;10.93;9.82;;;;;;;26.60;29.95;101761.13;3555426;40;20054;-79
2021/06/09 11:03:06;;;;;;;10.80;9.73;;;;;;;26.71;29.95;101759.63;3547387;40;20039;-79
2021/06/09 11:05:48;;;;;;;11.82;10.25;;;;;;;26.77;29.63;101757.88;3547417;40;20194;-80
2021/06/09 11:08:18;;;;;;;10.45;9.35;;;;;;;26.80;30.14;101758.31;3532937;40;20037;-78
2021/06/09 11:10:48;;;;;;;10.75;9.65;;;;;;;26.87;30.03;101752.69;3545982;40;20050;-79
2021/06/09 11:13:30;;;;;;;10.68;9.63;;;;;;;26.92;29.87;101762.22;3545689;40;20428;-79
2021/06/09 11:16:10;;;;;;;10.13;9.07;;;;;;;26.94;29.87;101764.78;3538676;40;20023;-82
2021/06/09 11:18:41;;;;;;;10.70;9.63;;;;;;;26.98;29.48;101760.47;3538510;40;20474;-79
2021/06/09 11:25:50;;;;;;;9.95;8.95;;;;;;;26.92;29.91;101752.94;3550673;40;20054;-79
2021/06/09 11:28:33;;;;;;;10.98;9.88;;;;;;;26.96;29.34;101754.22;3537077;40;20474;-79
2021/06/09 11:31:09;;;;;;;10.35;9.23;;;;;;;26.93;29.43;101754.63;3516915;40;20060;-79
2021/06/09 11:33:44;;;;;;;11.07;9.98;;;;;;;26.96;29.40;101748.59;3525594;40;20047;-79
2021/06/09 11:36:28;;;;;;;10.90;9.85;;;;;;;26.94;29.47;101751.63;3551547;40;20564;-80
2021/06/09 11:39:06;;;;;;;10.73;9.63;;;;;;;26.94;29.44;101745.13;3511888;41;20061;-79
2021/06/09 11:41:40;;;;;;;10.75;9.75;;;;;;;26.99;29.39;101746.22;3518636;41;20032;-79
2021/06/09 11:44:29;;;;;;;10.15;9.15;;;;;;;27.00;29.48;101739.53;3519421;41;20043;-78
2021/06/09 11:47:20;;;;;;;10.52;8.98;;;;;;;27.01;29.33;101734.75;3499451;41;20033;-77
2021/06/09 11:49:50;;;;;;;9.68;8.77;;;;;;;27.05;29.18;101733.25;3528055;40;20043;-79
2021/06/09 11:52:18;;;;;;;9.35;8.45;;;;;;;27.06;29.49;101726.53;3545261;40;20038;-79
2021/06/09 11:54:47;;;;;;;10.73;9.63;;;;;;;27.10;28.92;101725.00;3533438;40;20494;-82
2021/06/09 11:57:26;;;;;;;11.23;10.10;;;;;;;27.17;28.06;101723.06;3539675;40;20650;-78
2021/06/09 12:00:10;;;;;;;10.30;9.30;;;;;;;27.20;28.54;101725.41;3520506;40;20061;-80
2021/06/09 12:02:40;;;;;;;11.10;9.98;;;;;;;27.20;28.87;101716.97;3520792;40;20067;-79
2021/06/09 12:05:23;;;;;;;9.82;8.93;;;;;;;27.27;28.54;101715.00;3519809;40;20100;-79
2021/06/09 12:08:11;;;;;;;9.57;8.68;;;;;;;27.31;28.13;101707.88;3539624;40;20092;-79
2021/06/09 12:10:38;;;;;;;10.10;8.95;;;;;;;27.33;28.52;101704.84;3551675;40;20108;-77